createdAt,value
2019-06-01T00:01:49.033Z,2.77
2019-06-01T00:04:19.993Z,3.07
2019-06-01T00:06:51.363Z,3.23
2019-06-01T00:09:21.638Z,3.50
2019-06-01T00:11:52.104Z,3.50
2019-06-01T00:14:22.441Z,3.43
2019-06-01T00:16:52.760Z,3.47
2019-06-01T00:19:23.415Z,3.20
2019-06-01T00:21:54.329Z,3.30
2019-06-01T00:24:25.152Z,3.23
2019-06-01T00:26:55.761Z,3.73
2019-06-01T00:29:26.388Z,3.27
2019-06-01T00:31:57.038Z,3.10
2019-06-01T00:34:27.796Z,3.40
2019-06-01T00:36:58.295Z,3.17
2019-06-01T00:39:28.989Z,3.20
2019-06-01T00:41:59.649Z,3.33
2019-06-01T00:44:30.310Z,3.53
2019-06-01T00:47:00.782Z,3.23
2019-06-01T00:49:31.353Z,3.65
2019-06-01T00:52:01.963Z,3.60
2019-06-01T00:54:32.631Z,3.77
2019-06-01T00:57:03.269Z,3.70
2019-06-01T00:59:33.770Z,3.70
2019-06-01T01:02:04.216Z,3.70
2019-06-01T01:04:34.834Z,4.00
2019-06-01T01:07:05.502Z,3.67
2019-06-01T01:09:35.765Z,4.20
2019-06-01T01:12:06.034Z,3.80
2019-06-01T01:14:36.342Z,3.80
2019-06-01T01:17:06.673Z,3.70
2019-06-01T01:19:36.969Z,4.00
2019-06-01T01:22:07.231Z,4.10
2019-06-01T01:24:37.696Z,3.60
2019-06-01T01:27:07.943Z,3.57
2019-06-01T01:29:38.252Z,3.80
2019-06-01T01:32:08.529Z,3.67
2019-06-01T01:34:38.810Z,3.70
2019-06-01T01:37:09.126Z,4.10
2019-06-01T01:39:39.467Z,4.00
2019-06-01T01:42:09.666Z,3.97
2019-06-01T01:44:39.989Z,3.87
2019-06-01T01:47:10.253Z,3.77
2019-06-01T01:49:40.559Z,3.90
2019-06-01T01:52:10.813Z,4.00
2019-06-01T01:54:41.109Z,4.10
2019-06-01T01:57:11.454Z,3.80
2019-06-01T01:59:41.748Z,3.70
2019-06-01T02:02:12.120Z,3.83
2019-06-01T02:04:42.408Z,3.87
2019-06-01T02:07:12.733Z,3.80
2019-06-01T02:09:43.146Z,3.70
2019-06-01T02:12:13.402Z,3.83
2019-06-01T02:14:43.715Z,3.90
2019-06-01T02:17:13.975Z,3.77
2019-06-01T02:19:44.294Z,4.00
2019-06-01T02:22:14.546Z,3.90
2019-06-01T02:24:44.877Z,4.10
2019-06-01T02:27:15.126Z,3.83
2019-06-01T02:29:45.409Z,4.10
2019-06-01T02:32:15.676Z,4.03
2019-06-01T02:34:46.036Z,4.33
2019-06-01T02:37:16.283Z,4.33
2019-06-01T02:39:46.641Z,4.07
2019-06-01T02:42:17.139Z,4.00
2019-06-01T02:44:48.601Z,4.10
2019-06-01T02:47:18.892Z,4.00
2019-06-01T02:49:49.162Z,4.20
2019-06-01T02:52:19.461Z,4.10
2019-06-01T02:54:49.724Z,4.40
2019-06-01T02:57:20.010Z,3.90
2019-06-01T02:59:50.293Z,3.80
2019-06-01T03:02:20.601Z,4.00
2019-06-01T03:04:50.872Z,4.00
2019-06-01T03:07:21.400Z,4.13
2019-06-01T03:09:53.704Z,3.93
2019-06-01T03:12:26.368Z,3.83
2019-06-01T03:15:00.388Z,4.23
2019-06-01T03:17:34.504Z,3.93
2019-06-01T03:20:07.768Z,4.00
2019-06-01T03:22:40.418Z,3.70
2019-06-01T03:25:12.245Z,3.50
2019-06-01T03:27:45.093Z,3.67
2019-06-01T03:30:17.359Z,3.90
2019-06-01T03:32:47.784Z,3.73
2019-06-01T03:35:17.993Z,3.80
2019-06-01T03:37:48.412Z,3.80
2019-06-01T03:40:23.725Z,4.13
2019-06-01T03:42:50.568Z,4.00
2019-06-01T03:45:20.845Z,3.80
2019-06-01T03:47:51.139Z,3.60
2019-06-01T03:50:21.400Z,4.10
2019-06-01T03:52:51.683Z,4.37
2019-06-01T03:55:21.932Z,3.90
2019-06-01T03:57:52.233Z,3.57
2019-06-01T04:00:22.505Z,3.83
2019-06-01T04:02:52.798Z,4.00
2019-06-01T04:05:23.055Z,3.67
2019-06-01T04:07:53.441Z,3.47
2019-06-01T04:10:23.697Z,3.63
2019-06-01T04:12:53.989Z,3.87
2019-06-01T04:15:24.255Z,3.97
2019-06-01T04:17:54.587Z,3.90
2019-06-01T04:20:24.823Z,3.80
2019-06-01T04:22:55.106Z,4.20
2019-06-01T04:25:25.420Z,4.40
2019-06-01T04:27:55.721Z,4.43
2019-06-01T04:30:28.102Z,4.50
2019-06-01T04:32:58.446Z,4.03
2019-06-01T04:35:28.758Z,4.03
2019-06-01T04:37:59.029Z,4.50
2019-06-01T04:40:29.316Z,4.33
2019-06-01T04:42:59.600Z,4.27
2019-06-01T04:45:29.926Z,4.00
2019-06-01T04:48:00.215Z,4.47
2019-06-01T04:50:30.518Z,4.43
2019-06-01T04:53:00.813Z,4.63
2019-06-01T04:55:31.123Z,4.47
2019-06-01T04:58:01.379Z,4.60
2019-06-01T05:00:31.740Z,4.37
2019-06-01T05:03:05.240Z,4.70
2019-06-01T05:05:34.141Z,4.37
2019-06-01T05:08:05.182Z,4.23
2019-06-01T05:10:35.639Z,4.30
2019-06-01T05:13:05.957Z,4.83
2019-06-01T05:15:36.200Z,4.60
2019-06-01T05:18:06.489Z,4.03
2019-06-01T05:20:36.780Z,4.27
2019-06-01T05:23:08.448Z,3.97
2019-06-01T05:25:38.902Z,4.33
2019-06-01T05:28:09.189Z,4.23
2019-06-01T05:30:39.494Z,4.27
2019-06-01T05:33:26.593Z,4.30
2019-06-01T05:35:41.694Z,4.13
2019-06-01T05:38:12.228Z,3.90
2019-06-01T05:40:42.561Z,4.13
2019-06-01T05:43:17.170Z,3.70
2019-06-01T05:45:44.938Z,3.80
2019-06-01T05:48:22.807Z,3.50
2019-06-01T05:50:47.208Z,3.80
2019-06-01T05:53:19.744Z,3.80
2019-06-01T05:55:49.598Z,4.00
2019-06-01T05:58:21.328Z,3.80
2019-06-01T06:00:51.957Z,3.40
2019-06-01T06:03:37.377Z,3.80
2019-06-01T06:05:55.249Z,3.67
2019-06-01T06:08:25.525Z,3.53
2019-06-01T06:10:55.869Z,3.70
2019-06-01T06:13:26.145Z,3.67
2019-06-01T06:15:56.421Z,3.70
2019-06-01T06:18:26.686Z,3.40
2019-06-01T06:20:57.003Z,3.53
2019-06-01T06:23:27.272Z,3.50
2019-06-01T06:25:57.572Z,3.40
2019-06-01T06:28:27.818Z,3.60
2019-06-01T06:30:58.134Z,3.50
2019-06-01T06:33:28.527Z,3.80
2019-06-01T06:35:59.765Z,3.37
2019-06-01T06:38:30.144Z,3.40
2019-06-01T06:41:00.429Z,3.20
2019-06-01T06:43:33.161Z,3.60
2019-06-01T06:46:02.899Z,3.45
2019-06-01T06:48:44.984Z,3.40
2019-06-01T06:51:21.283Z,3.37
2019-06-01T06:53:51.666Z,3.23
2019-06-01T06:56:22.091Z,3.33
2019-06-01T06:58:54.080Z,3.20
2019-06-01T07:01:24.957Z,3.00
2019-06-01T07:04:09.194Z,3.23
2019-06-01T07:06:27.747Z,3.12
2019-06-01T07:08:58.732Z,3.40
2019-06-01T07:11:29.955Z,4.77
2019-06-01T07:14:00.380Z,3.50
2019-06-01T07:16:31.813Z,3.37
2019-06-01T07:19:02.468Z,3.30
2019-06-01T07:21:32.797Z,4.20
2019-06-01T07:24:03.116Z,3.47
2019-06-01T07:26:33.649Z,3.33
2019-06-01T07:29:03.952Z,3.30
2019-06-01T07:31:35.390Z,3.50
2019-06-01T07:34:06.389Z,3.00
2019-06-01T07:36:37.035Z,3.00
2019-06-01T07:39:09.034Z,3.00
2019-06-01T07:41:39.591Z,3.17
2019-06-01T07:44:10.210Z,3.70
2019-06-01T07:46:40.570Z,3.37
2019-06-01T07:49:10.869Z,3.27
2019-06-01T07:51:41.453Z,3.40
2019-06-01T07:54:11.870Z,3.52
2019-06-01T07:56:42.205Z,4.42
2019-06-01T07:59:12.754Z,4.10
2019-06-01T08:01:47.295Z,5.35
2019-06-01T08:04:18.362Z,4.87
2019-06-01T08:06:56.991Z,4.90
2019-06-01T08:09:27.905Z,5.50
2019-06-01T08:12:04.982Z,5.08
2019-06-01T08:14:35.252Z,5.28
2019-06-01T08:17:05.728Z,6.00
2019-06-01T08:19:35.993Z,5.08
2019-06-01T08:22:06.337Z,4.97
2019-06-01T08:24:36.573Z,5.72
2019-06-01T08:27:09.968Z,5.28
2019-06-01T08:29:40.235Z,5.28
2019-06-01T08:32:10.520Z,4.95
2019-06-01T08:34:40.815Z,4.53
2019-06-01T08:37:11.094Z,4.97
2019-06-01T08:39:41.450Z,4.22
2019-06-01T08:42:11.918Z,5.20
2019-06-01T08:44:47.161Z,5.40
2019-06-01T08:47:20.159Z,5.05
2019-06-01T08:49:51.538Z,5.62
2019-06-01T08:52:21.875Z,5.10
2019-06-01T08:54:52.489Z,4.70
2019-06-01T08:57:24.097Z,4.87
2019-06-01T08:59:54.612Z,4.70
2019-06-01T09:02:24.937Z,4.60
2019-06-01T09:04:55.337Z,4.28
2019-06-01T09:07:26.797Z,4.05
2019-06-01T09:09:57.213Z,3.92
2019-06-01T09:12:27.555Z,4.33
2019-06-01T09:14:58.109Z,4.15
2019-06-01T09:17:29.430Z,3.50
2019-06-01T09:20:00.855Z,3.42
2019-06-01T09:22:35.750Z,3.67
2019-06-01T09:25:07.302Z,3.35
2019-06-01T09:27:37.560Z,3.08
2019-06-01T09:30:09.286Z,3.15
2019-06-01T09:32:39.602Z,3.10
2019-06-01T09:35:10.160Z,3.10
2019-06-01T09:37:40.819Z,3.15
2019-06-01T09:40:11.466Z,2.95
2019-06-01T09:42:42.040Z,2.58
2019-06-01T09:45:12.743Z,2.70
2019-06-01T09:47:43.667Z,2.70
2019-06-01T09:50:14.588Z,2.75
2019-06-01T09:52:44.876Z,2.55
2019-06-01T09:55:15.715Z,2.65
2019-06-01T09:57:46.135Z,2.70
2019-06-01T10:00:16.799Z,2.80
2019-06-01T10:02:47.134Z,3.00
2019-06-01T10:06:00.699Z,2.95
2019-06-01T10:08:21.221Z,2.70
2019-06-01T10:11:04.535Z,2.87
2019-06-01T10:13:36.387Z,2.52
2019-06-01T10:16:07.154Z,2.80
2019-06-01T10:18:41.173Z,2.42
2019-06-01T10:21:17.126Z,2.70
2019-06-01T10:23:49.716Z,2.30
2019-06-01T10:26:20.216Z,2.30
2019-06-01T10:28:51.031Z,1.92
2019-06-01T10:31:23.860Z,2.10
2019-06-01T10:33:54.341Z,1.90
2019-06-01T10:36:24.705Z,1.72
2019-06-01T10:38:57.134Z,1.98
2019-06-01T10:41:27.497Z,1.80
2019-06-01T10:44:00.776Z,1.70
2019-06-01T10:46:33.944Z,1.80
2019-06-01T10:49:04.649Z,1.90
2019-06-01T10:51:36.243Z,1.70
2019-06-01T10:54:06.689Z,2.20
2019-06-01T10:56:38.405Z,2.30
2019-06-01T10:59:08.855Z,2.15
2019-06-01T11:01:40.700Z,1.80
2019-06-01T11:04:11.398Z,2.00
2019-06-01T11:06:47.758Z,2.10
2019-06-01T11:09:14.488Z,2.55
2019-06-01T11:11:44.799Z,2.00
2019-06-01T11:14:15.066Z,2.05
2019-06-01T11:16:45.484Z,2.20
2019-06-01T11:19:15.806Z,2.10
2019-06-01T11:21:46.109Z,2.12
2019-06-01T11:24:16.364Z,2.00
2019-06-01T11:26:46.648Z,1.90
2019-06-01T11:29:17.096Z,2.05
2019-06-01T11:31:47.754Z,2.20
2019-06-01T11:34:18.926Z,1.95
2019-06-01T11:37:04.372Z,1.90
2019-06-01T11:39:22.604Z,1.80
2019-06-01T11:41:55.873Z,1.80
2019-06-01T11:44:28.519Z,1.85
2019-06-01T11:47:01.290Z,1.80
2019-06-01T11:49:43.248Z,1.70
2019-06-01T11:52:14.505Z,1.75
2019-06-01T11:54:45.826Z,1.90
2019-06-01T11:57:17.628Z,1.80
2019-06-01T11:59:50.890Z,1.77
2019-06-01T12:02:22.568Z,1.70
2019-06-01T12:04:55.641Z,1.62
2019-06-01T12:07:26.680Z,1.57
2019-06-01T12:09:57.434Z,1.75
2019-06-01T12:12:30.762Z,1.80
2019-06-01T12:15:01.064Z,1.90
2019-06-01T12:17:31.381Z,1.80
2019-06-01T12:20:01.740Z,1.98
2019-06-01T12:22:32.142Z,1.80
2019-06-01T12:25:03.339Z,1.90
2019-06-01T12:27:33.630Z,2.10
2019-06-01T12:30:04.054Z,1.62
2019-06-01T12:32:34.462Z,1.77
2019-06-01T12:35:05.137Z,1.75
2019-06-01T12:37:55.047Z,1.75
2019-06-01T12:40:07.974Z,1.65
2019-06-01T12:42:39.813Z,1.90
2019-06-01T12:45:17.111Z,2.00
2019-06-01T12:47:49.573Z,1.80
2019-06-01T12:50:19.601Z,1.87
2019-06-01T12:52:50.127Z,1.70
2019-06-01T12:55:21.845Z,1.75
2019-06-01T12:57:53.213Z,1.90
2019-06-01T13:00:24.050Z,1.98
2019-06-01T13:03:03.303Z,1.87
2019-06-01T13:05:26.668Z,1.72
2019-06-01T13:08:02.325Z,1.80
2019-06-01T13:10:29.255Z,1.90
2019-06-01T13:12:59.645Z,1.80
2019-06-01T13:15:30.277Z,1.90
2019-06-01T13:18:00.685Z,1.92
2019-06-01T13:20:31.050Z,1.85
2019-06-01T13:23:01.336Z,1.90
2019-06-01T13:25:31.700Z,1.85
2019-06-01T13:28:02.074Z,1.80
2019-06-01T13:30:32.347Z,1.90
2019-06-01T13:33:02.666Z,1.80
2019-06-01T13:35:32.946Z,1.80
2019-06-01T13:38:11.860Z,1.80
2019-06-01T13:40:35.189Z,1.98
2019-06-01T13:43:05.614Z,2.00
2019-06-01T13:45:35.978Z,1.90
2019-06-01T13:48:06.284Z,1.70
2019-06-01T13:50:36.649Z,1.82
2019-06-01T13:53:06.953Z,1.85
2019-06-01T13:55:37.249Z,2.08
2019-06-01T13:58:07.565Z,2.02
2019-06-01T14:00:37.899Z,1.82
2019-06-01T14:03:08.206Z,1.77
2019-06-01T14:05:39.071Z,1.90
2019-06-01T14:08:09.492Z,1.80
2019-06-01T14:10:39.846Z,1.80
2019-06-01T14:13:10.172Z,1.90
2019-06-01T14:15:40.527Z,2.00
2019-06-01T14:18:10.813Z,2.08
2019-06-01T14:20:41.098Z,2.20
2019-06-01T14:23:12.472Z,2.00
2019-06-01T14:25:43.870Z,1.72
2019-06-01T14:28:14.187Z,1.80
2019-06-01T14:30:44.473Z,1.90
2019-06-01T14:33:14.975Z,1.90
2019-06-01T14:35:46.425Z,1.90
2019-06-01T14:38:16.886Z,2.00
2019-06-01T14:40:47.170Z,1.82
2019-06-01T14:43:18.573Z,2.00
2019-06-01T14:45:49.671Z,1.92
2019-06-01T14:48:21.328Z,1.90
2019-06-01T14:50:51.709Z,2.00
2019-06-01T14:53:22.036Z,2.30
2019-06-01T14:55:52.374Z,2.33
2019-06-01T14:58:23.781Z,2.20
2019-06-01T15:00:54.610Z,1.80
2019-06-01T15:03:25.025Z,1.98
2019-06-01T15:05:56.406Z,1.47
2019-06-01T15:08:26.785Z,1.80
2019-06-01T15:10:58.485Z,1.77
2019-06-01T15:13:29.148Z,1.60
2019-06-01T15:15:59.458Z,1.70
2019-06-01T15:18:29.797Z,1.80
2019-06-01T15:21:00.124Z,1.80
2019-06-01T15:23:30.426Z,1.70
2019-06-01T15:26:00.693Z,1.90
2019-06-01T15:28:31.000Z,2.00
2019-06-01T15:31:01.332Z,1.70
2019-06-01T15:33:31.605Z,1.72
2019-06-01T15:36:01.937Z,1.52
2019-06-01T15:38:32.207Z,1.75
2019-06-01T15:41:02.523Z,1.92
2019-06-01T15:43:32.845Z,2.58
2019-06-01T15:46:03.190Z,1.85
2019-06-01T15:48:33.460Z,1.98
2019-06-01T15:51:07.116Z,2.00
2019-06-01T15:53:35.822Z,2.20
2019-06-01T15:56:06.260Z,2.20
2019-06-01T15:58:51.977Z,2.30
2019-06-01T16:01:08.531Z,1.85
2019-06-01T16:03:38.959Z,2.40
2019-06-01T16:06:09.226Z,2.27
2019-06-01T16:08:39.605Z,2.35
2019-06-01T16:11:09.973Z,2.30
2019-06-01T16:13:40.261Z,2.05
2019-06-01T16:16:10.874Z,2.25
2019-06-01T16:18:41.157Z,2.08
2019-06-01T16:21:11.445Z,2.42
2019-06-01T16:23:49.733Z,2.40
2019-06-01T16:26:16.322Z,3.00
2019-06-01T16:28:45.617Z,2.20
2019-06-01T16:31:15.971Z,2.00
2019-06-01T16:33:46.333Z,1.95
2019-06-01T16:36:16.782Z,3.10
2019-06-01T16:38:47.115Z,2.50
2019-06-01T16:41:17.430Z,2.40
2019-06-01T16:43:47.708Z,2.12
2019-06-01T16:46:18.036Z,2.30
2019-06-01T16:48:48.353Z,1.95
2019-06-01T16:51:18.650Z,2.10
2019-06-01T16:53:49.404Z,1.90
2019-06-01T16:56:19.797Z,2.02
2019-06-01T16:58:50.218Z,2.00
2019-06-01T17:01:20.579Z,2.20
2019-06-01T17:03:50.884Z,2.22
2019-06-01T17:06:21.191Z,2.33
2019-06-01T17:08:51.507Z,2.02
2019-06-01T17:11:21.813Z,3.20
2019-06-01T17:13:52.370Z,2.90
2019-06-01T17:16:22.936Z,2.70
2019-06-01T17:18:54.428Z,3.20
2019-06-01T17:21:24.968Z,2.20
2019-06-01T17:23:55.752Z,2.02
2019-06-01T17:26:26.741Z,2.30
2019-06-01T17:28:58.040Z,2.22
2019-06-01T17:31:29.025Z,2.10
2019-06-01T17:34:00.414Z,2.33
2019-06-01T17:36:30.777Z,2.60
2019-06-01T17:39:02.025Z,2.20
2019-06-01T17:41:32.757Z,1.80
2019-06-01T17:44:03.061Z,4.40
2019-06-01T17:46:43.352Z,2.60
2019-06-01T17:49:06.285Z,2.22
2019-06-01T17:51:36.700Z,2.08
2019-06-01T17:54:08.336Z,2.67
2019-06-01T17:56:38.708Z,2.12
2019-06-01T17:59:09.996Z,2.50
2019-06-01T18:01:42.407Z,2.20
2019-06-01T18:04:12.392Z,2.20
2019-06-01T18:06:43.823Z,2.00
2019-06-01T18:09:14.200Z,2.12
2019-06-01T18:11:44.757Z,1.95
2019-06-01T18:14:15.250Z,2.15
2019-06-01T18:16:45.550Z,5.00
2019-06-01T18:19:15.943Z,10.28
2019-06-01T18:21:46.338Z,38.90
2019-06-01T18:24:16.727Z,17.40
2019-06-01T18:26:47.076Z,2.98
2019-06-01T18:29:17.455Z,13.68
2019-06-01T18:31:47.738Z,13.18
2019-06-01T18:34:18.038Z,13.10
2019-06-01T18:36:48.351Z,10.20
2019-06-01T18:39:18.688Z,10.98
2019-06-01T18:41:50.117Z,8.30
2019-06-01T18:44:21.466Z,8.98
2019-06-01T18:46:51.794Z,2.85
2019-06-01T18:49:22.088Z,7.70
2019-06-01T18:51:52.469Z,5.00
2019-06-01T18:54:23.146Z,4.20
2019-06-01T18:57:09.019Z,5.20
2019-06-01T18:59:27.108Z,4.35
2019-06-01T19:01:57.571Z,4.45
2019-06-01T19:04:28.684Z,4.53
2019-06-01T19:06:59.777Z,3.90
2019-06-01T19:09:30.052Z,3.77
2019-06-01T19:12:02.503Z,2.70
2019-06-01T19:14:32.750Z,3.47
2019-06-01T19:17:03.561Z,3.10
2019-06-01T19:19:34.979Z,3.12
2019-06-01T19:22:06.608Z,3.10
2019-06-01T19:24:38.494Z,3.00
2019-06-01T19:27:10.665Z,2.70
2019-06-01T19:29:42.588Z,3.02
2019-06-01T19:32:12.975Z,2.55
2019-06-01T19:34:43.376Z,3.30
2019-06-01T19:37:13.759Z,4.05
2019-06-01T19:39:45.261Z,3.15
2019-06-01T19:42:15.656Z,2.85
2019-06-01T19:44:45.993Z,2.92
2019-06-01T19:47:16.284Z,3.25
2019-06-01T19:49:47.248Z,2.72
2019-06-01T19:52:19.031Z,3.75
2019-06-01T19:54:50.615Z,5.00
2019-06-01T19:57:25.416Z,5.50
2019-06-01T19:59:59.061Z,4.53
2019-06-01T20:02:33.934Z,4.53
2019-06-01T20:05:01.574Z,4.05
2019-06-01T20:07:31.996Z,3.02
2019-06-01T20:10:02.393Z,3.02
2019-06-01T20:12:33.098Z,3.05
2019-06-01T20:15:03.544Z,3.70
2019-06-01T20:17:33.949Z,4.87
2019-06-01T20:20:06.389Z,4.20
2019-06-01T20:22:38.406Z,4.10
2019-06-01T20:25:09.083Z,4.15
2019-06-01T20:27:39.521Z,3.58
2019-06-01T20:30:11.730Z,3.52
2019-06-01T20:32:42.138Z,2.95
2019-06-01T20:35:13.936Z,3.50
2019-06-01T20:37:44.597Z,3.37
2019-06-01T20:40:16.243Z,3.92
2019-06-01T20:42:46.596Z,4.00
2019-06-01T20:45:18.651Z,4.20
2019-06-01T20:47:49.114Z,4.75
2019-06-01T20:50:20.723Z,5.22
2019-06-01T20:52:51.118Z,5.10
2019-06-01T20:55:21.576Z,4.80
2019-06-01T20:57:53.754Z,4.60
2019-06-01T21:00:24.294Z,4.92
2019-06-01T21:02:55.867Z,4.92
2019-06-01T21:05:26.972Z,3.70
2019-06-01T21:07:58.056Z,3.80
2019-06-01T21:10:28.540Z,4.05
2019-06-01T21:12:59.086Z,4.00
2019-06-01T21:15:31.313Z,3.80
2019-06-01T21:18:02.113Z,3.55
2019-06-01T21:20:33.034Z,4.00
2019-06-01T21:23:03.825Z,3.95
2019-06-01T21:25:34.146Z,4.17
2019-06-01T21:28:05.451Z,4.37
2019-06-01T21:30:36.512Z,4.17
2019-06-01T21:33:07.341Z,4.75
2019-06-01T21:35:37.761Z,4.50
2019-06-01T21:38:08.948Z,3.80
2019-06-01T21:40:40.034Z,4.10
2019-06-01T21:43:23.665Z,4.12
2019-06-01T21:45:43.227Z,3.75
2019-06-01T21:48:13.635Z,3.70
2019-06-01T21:50:49.864Z,4.10
2019-06-01T21:53:22.100Z,4.70
2019-06-01T21:55:52.503Z,4.33
2019-06-01T21:58:22.818Z,4.80
2019-06-01T22:00:53.225Z,4.62
2019-06-01T22:03:25.489Z,4.85
2019-06-01T22:05:55.520Z,5.20
2019-06-01T22:08:25.832Z,5.28
2019-06-01T22:10:56.162Z,4.92
2019-06-01T22:13:27.544Z,5.40
2019-06-01T22:15:58.343Z,5.30
2019-06-01T22:18:28.630Z,5.12
2019-06-01T22:20:58.899Z,4.42
2019-06-01T22:23:29.184Z,4.90
2019-06-01T22:25:59.445Z,4.47
2019-06-01T22:28:29.776Z,4.10
2019-06-01T22:31:00.077Z,4.72
2019-06-01T22:33:30.369Z,4.78
2019-06-01T22:36:00.717Z,4.60
2019-06-01T22:38:31.058Z,4.70
2019-06-01T22:41:01.303Z,4.87
2019-06-01T22:43:45.664Z,3.30
2019-06-01T22:46:03.575Z,3.80
2019-06-01T22:48:33.879Z,3.70
2019-06-01T22:51:04.308Z,3.65
2019-06-01T22:53:34.609Z,3.58
2019-06-01T22:56:04.964Z,3.98
2019-06-01T22:58:35.268Z,4.08
2019-06-01T23:01:05.702Z,3.77
2019-06-01T23:03:35.969Z,4.00
2019-06-01T23:06:06.248Z,4.33
2019-06-01T23:08:36.555Z,4.72
2019-06-01T23:11:06.882Z,4.92
2019-06-01T23:13:52.289Z,4.80
2019-06-01T23:16:09.135Z,5.17
2019-06-01T23:18:39.502Z,4.92
2019-06-01T23:21:09.780Z,5.05
2019-06-01T23:23:40.186Z,4.80
2019-06-01T23:26:10.449Z,4.85
2019-06-01T23:28:40.756Z,4.65
2019-06-01T23:31:11.058Z,5.80
2019-06-01T23:33:41.564Z,5.80
2019-06-01T23:36:12.601Z,5.62
2019-06-01T23:38:42.921Z,5.60
2019-06-01T23:41:13.215Z,5.28
2019-06-01T23:43:43.548Z,5.30
2019-06-01T23:46:13.901Z,4.92
2019-06-01T23:48:44.198Z,5.40
2019-06-01T23:51:14.472Z,5.17
2019-06-01T23:53:44.801Z,5.33
2019-06-01T23:56:15.157Z,4.97
2019-06-01T23:58:45.509Z,5.33
